Main page
METAR-TAF:

METAR-TAF

Airports :

Haneda Airport

Tokyo-Haneda, Japan

latitude: 35-33N, longitude: 139-47E, elevation: 5 m

Current weather observation

The report was made 11 minutes ago, at 10:00 UTC
Wind 8 kt from the South/Southwest
Temperature 12°C
Humidity 62%
Pressure 1020 hPa
Visibility 10 km or more
Few clouds at a height of 3000 ft
Scattered clouds

METAR: RJTT 241000Z 21008KT 9999 FEW030 SCT/// 12/05 Q1020 NOSIG RMK 1CU030 A3013

Time: 19:11 (10:11 UTC)

Forecast

The report was made 5 hours and 6 minutes ago, at 05:05 UTC
Forecast valid from 24 at 06 UTC to 25 at 12 UTC
Wind 10 kt from the South
Visibility 10 km or more
Few clouds at a height of 3000 ft
Becoming
from 24 at 11 UTC to 24 at 13 UTC
Wind 10 kt from the North/Northwest
Becoming
from 25 at 03 UTC to 25 at 06 UTC
Wind 6 kt from the Southeast

TAF: RJTT 240505Z 2406/2512 19010KT 9999 FEW030 BECMG 2411/2413 34010KT BECMG 2503/2506 14006KT

Weather observations and forecasts of more than 4000 airports (METAR and TAF reports).

The available stations are represented by yellow and red dots on the map.

Hover mouse over dot to see the name of the station.

Then click to see weather observations and forecasts.

To change the map : click on the green buttons with a black cross to zoom in, on the green button with a dash to zoom out, or on the green arrows for adjacent maps.


METAR-TAF: